Time;durP1;ratioP1;P1;durP2;ratioP2;P2;SDS_P1;SDS_P2;PMS_P1;PMS_P2;Temp;Humidity;BMP_temperature;BMP_pressure;BME280_temperature;BME280_humidity;BME280_pressure;Samples;Min_cycle;Max_cycle;Signal;HPM_P1;HPM_P2
2021/06/08 00:01:56;;;;;;;7.77;6.70;;;25.80;56.60;;;;;;5017590;28;20428;-81
2021/06/08 00:04:22;;;;;;;7.20;6.50;;;25.80;56.50;;;;;;5017519;28;20275;-81
2021/06/08 00:06:50;;;;;;;8.87;7.97;;;25.80;56.60;;;;;;5017862;28;20419;-82
2021/06/08 00:09:18;;;;;;;7.43;6.73;;;25.80;56.50;;;;;;5035434;28;20252;-81
2021/06/08 00:11:44;;;;;;;7.20;6.50;;;25.80;56.60;;;;;;5017532;28;20419;-81
2021/06/08 00:14:12;;;;;;;7.80;6.70;;;25.80;56.50;;;;;;5034954;28;20434;-82
2021/06/08 00:16:39;;;;;;;7.00;6.40;;;25.80;56.60;;;;;;5035235;28;20431;-81
2021/06/08 00:19:04;;;;;;;9.13;7.40;;;25.80;56.50;;;;;;5034862;28;20415;-81
2021/06/08 00:21:40;;;;;;;7.00;6.40;;;25.80;56.60;;;;;;5017492;28;20438;-81
2021/06/08 00:24:40;;;;;;;6.77;6.27;;;25.80;56.60;;;;;;5016616;28;20702;-81
2021/06/08 00:27:07;;;;;;;6.90;6.20;;;25.80;56.50;;;;;;5017219;28;20396;-81
2021/06/08 00:29:36;;;;;;;7.43;6.73;;;25.70;56.60;;;;;;5016626;28;20442;-81
2021/06/08 00:32:03;;;;;;;7.73;6.93;;;25.70;56.60;;;;;;5033073;28;20510;-81
2021/06/08 00:34:29;;;;;;;6.83;6.23;;;25.80;56.70;;;;;;5016617;28;20423;-81
2021/06/08 00:36:56;;;;;;;7.27;6.47;;;25.70;56.60;;;;;;5016709;28;20461;-81
2021/06/08 00:39:22;;;;;;;7.33;6.63;;;25.80;56.70;;;;;;5016326;28;20463;-81
2021/06/08 00:41:48;;;;;;;6.97;6.27;;;25.70;56.60;;;;;;5033435;28;20426;-81
2021/06/08 00:44:17;;;;;;;7.50;6.80;;;25.70;56.60;;;;;;5016451;28;20183;-81
2021/06/08 00:46:45;;;;;;;6.83;6.23;;;25.70;56.70;;;;;;5033628;28;20920;-81
2021/06/08 00:49:18;;;;;;;7.70;7.00;;;25.70;56.70;;;;;;5032972;28;20473;-81
2021/06/08 00:52:00;;;;;;;8.00;7.20;;;25.70;56.70;;;;;;5033528;28;20410;-81
2021/06/08 00:54:26;;;;;;;7.17;6.43;;;25.70;56.70;;;;;;5016432;28;20483;-81
2021/06/08 00:57:02;;;;;;;7.20;6.50;;;25.60;57.20;;;;;;5033338;28;20411;-80
2021/06/08 00:59:33;;;;;;;7.30;6.63;;;25.60;56.80;;;;;;5016279;28;20457;-80
2021/06/08 01:02:02;;;;;;;7.00;6.40;;;25.60;56.80;;;;;;5016804;28;20498;-82
2021/06/08 01:04:27;;;;;;;6.40;5.90;;;25.70;56.80;;;;;;5034577;28;20423;-82
2021/06/08 01:06:58;;;;;;;7.60;6.90;;;25.70;56.80;;;;;;5016015;28;20416;-81
2021/06/08 01:09:27;;;;;;;7.10;6.50;;;25.70;56.80;;;;;;5016525;28;20172;-82
2021/06/08 01:11:55;;;;;;;7.37;6.67;;;25.70;56.70;;;;;;5016638;28;20451;-82
2021/06/08 01:14:23;;;;;;;8.17;6.83;;;25.70;56.70;;;;;;5016308;28;20446;-82
2021/06/08 01:16:55;;;;;;;6.47;5.97;;;25.70;56.70;;;;;;5016460;28;20411;-82
2021/06/08 01:19:24;;;;;;;6.70;6.00;;;25.70;56.60;;;;;;5016841;28;20493;-82
2021/06/08 01:21:50;;;;;;;6.63;6.07;;;25.70;56.60;;;;;;5032955;28;20403;-81
2021/06/08 01:24:19;;;;;;;6.57;5.97;;;25.70;56.60;;;;;;5015758;28;20958;-83
2021/06/08 01:26:48;;;;;;;7.03;6.40;;;25.70;56.60;;;;;;5032620;28;20179;-82
2021/06/08 01:29:18;;;;;;;6.83;6.13;;;25.70;56.50;;;;;;5014860;28;20407;-82
2021/06/08 01:31:48;;;;;;;6.87;6.27;;;25.80;56.60;;;;;;5014970;28;20422;-82
2021/06/08 01:34:22;;;;;;;6.10;5.50;;;25.70;56.50;;;;;;5031473;28;20403;-82
2021/06/08 01:36:48;;;;;;;6.40;5.80;;;25.70;56.50;;;;;;5033075;28;20419;-82
2021/06/08 01:39:15;;;;;;;6.87;6.27;;;25.80;56.60;;;;;;5031520;28;20443;-82
2021/06/08 01:41:42;;;;;;;6.80;6.10;;;25.70;56.50;;;;;;5031571;28;20423;-82
2021/06/08 01:44:08;;;;;;;5.63;5.23;;;25.70;56.50;;;;;;5015429;28;20523;-81
2021/06/08 01:46:33;;;;;;;6.97;6.37;;;25.80;56.50;;;;;;5014999;28;20428;-82
2021/06/08 01:48:59;;;;;;;6.63;6.03;;;25.70;56.40;;;;;;5015635;28;20438;-82
2021/06/08 01:51:49;;;;;;;5.90;5.30;;;25.80;56.50;;;;;;5015205;28;20184;-82
2021/06/08 01:54:40;;;;;;;7.10;6.40;;;25.80;56.50;;;;;;5015629;28;20184;-82
2021/06/08 01:57:18;;;;;;;7.70;6.97;;;25.70;56.40;;;;;;5015760;28;20439;-82
2021/06/08 02:00:06;;;;;;;7.10;6.50;;;25.70;56.60;;;;;;5016655;28;20455;-82
2021/06/08 02:02:58;;;;;;;6.80;6.20;;;25.70;56.60;;;;;;5015394;28;20407;-82
2021/06/08 02:05:34;;;;;;;6.90;6.30;;;25.60;56.60;;;;;;5015808;28;20407;-82
2021/06/08 02:08:13;;;;;;;6.97;6.37;;;25.60;56.70;;;;;;5033607;28;20408;-82
2021/06/08 02:10:47;;;;;;;6.67;6.07;;;25.60;56.80;;;;;;5015173;28;20450;-82
2021/06/08 02:13:47;;;;;;;6.70;6.10;;;25.60;56.80;;;;;;5016126;28;20445;-82
2021/06/08 02:17:06;;;;;;;6.93;6.33;;;25.60;56.80;;;;;;5032668;28;20396;-82
2021/06/08 02:26:54;;;;;;;6.53;5.97;;;25.50;56.90;;;;;;5032297;28;20395;-82
2021/06/08 02:29:22;;;;;;;8.63;5.90;;;25.50;57.00;;;;;;5014196;28;20411;-81
2021/06/08 02:31:49;;;;;;;6.73;6.13;;;25.50;57.10;;;;;;5031136;28;20427;-81
2021/06/08 02:34:16;;;;;;;6.57;6.00;;;25.50;57.10;;;;;;5015057;28;20419;-81
2021/06/08 02:36:47;;;;;;;6.63;6.03;;;25.50;57.10;;;;;;5014322;28;20415;-81
2021/06/08 02:39:15;;;;;;;6.70;6.10;;;25.50;57.00;;;;;;5014300;28;20415;-81
2021/06/08 02:41:42;;;;;;;6.03;5.53;;;25.50;57.10;;;;;;5013917;28;20442;-81
2021/06/08 02:44:09;;;;;;;7.47;6.70;;;25.50;57.10;;;;;;5032034;28;20431;-81
2021/06/08 02:46:36;;;;;;;5.87;5.27;;;25.50;57.10;;;;;;5033230;28;20407;-81
2021/06/08 02:49:03;;;;;;;7.00;6.30;;;25.50;57.00;;;;;;5018471;28;20430;-81
2021/06/08 02:51:29;;;;;;;7.20;6.60;;;25.50;57.10;;;;;;5035912;28;20411;-81
2021/06/08 02:53:56;;;;;;;6.07;5.57;;;25.50;57.10;;;;;;5018726;28;20415;-81
2021/06/08 02:56:22;;;;;;;7.03;6.33;;;25.50;57.10;;;;;;5036716;28;20407;-81
2021/06/08 02:58:49;;;;;;;6.97;6.37;;;25.50;57.10;;;;;;5019123;28;20506;-81
2021/06/08 03:01:18;;;;;;;7.40;6.60;;;25.50;57.10;;;;;;5037356;28;20530;-81
2021/06/08 03:03:51;;;;;;;6.20;5.60;;;25.50;57.20;;;;;;5036587;28;20471;-81
2021/06/08 03:06:22;;;;;;;6.33;5.73;;;25.50;57.20;;;;;;5018208;28;20412;-81
2021/06/08 03:08:53;;;;;;;6.57;6.07;;;25.50;57.20;;;;;;5035463;28;20419;-81
2021/06/08 03:11:35;;;;;;;6.97;6.27;;;25.50;57.20;;;;;;5035331;28;20450;-81
2021/06/08 03:14:01;;;;;;;6.90;6.30;;;25.50;57.20;;;;;;5035383;28;20499;-80
2021/06/08 03:16:31;;;;;;;6.80;6.20;;;25.50;57.20;;;;;;5018146;28;20415;-81
2021/06/08 03:19:03;;;;;;;6.40;5.80;;;25.50;57.20;;;;;;5018722;28;20451;-81
2021/06/08 03:21:37;;;;;;;6.30;5.80;;;25.50;57.20;;;;;;5017597;28;20470;-81
2021/06/08 03:24:07;;;;;;;7.17;6.50;;;25.50;57.20;;;;;;5018371;28;20423;-80
2021/06/08 03:26:37;;;;;;;7.10;6.43;;;25.50;57.20;;;;;;5017676;28;20410;-81
2021/06/08 03:29:08;;;;;;;6.07;5.47;;;25.50;57.20;;;;;;5034124;28;20403;-81
2021/06/08 03:31:36;;;;;;;6.47;5.87;;;25.40;57.20;;;;;;5033554;28;20422;-81
2021/06/08 03:34:03;;;;;;;5.60;5.10;;;25.40;57.20;;;;;;5017571;28;20419;-80
2021/06/08 03:36:31;;;;;;;6.17;5.60;;;25.40;57.20;;;;;;5035271;28;20390;-81
2021/06/08 03:38:58;;;;;;;6.17;5.67;;;25.40;57.20;;;;;;5017621;28;20446;-80
2021/06/08 03:41:24;;;;;;;6.67;5.97;;;25.40;57.20;;;;;;5017557;28;20462;-81
2021/06/08 03:43:51;;;;;;;6.80;6.20;;;25.40;57.20;;;;;;5017449;28;20435;-81
2021/06/08 03:46:24;;;;;;;7.10;6.50;;;25.40;57.20;;;;;;5034297;28;20431;-81
2021/06/08 03:48:51;;;;;;;6.27;5.77;;;25.50;57.30;;;;;;5019487;28;20423;-81
2021/06/08 03:51:17;;;;;;;7.00;6.40;;;25.40;57.80;;;;;;5019749;28;20415;-81
2021/06/08 03:53:43;;;;;;;6.67;6.07;;;25.40;57.20;;;;;;5036833;28;20431;-81
2021/06/08 03:56:13;;;;;;;6.07;5.57;;;25.40;57.30;;;;;;5036837;28;20415;-81
2021/06/08 03:58:40;;;;;;;6.33;5.83;;;25.50;57.30;;;;;;5019315;28;20187;-81
2021/06/08 04:01:06;;;;;;;6.37;5.77;;;25.30;57.20;;;;;;5018399;28;20455;-81
2021/06/08 04:03:34;;;;;;;6.40;5.80;;;25.40;57.30;;;;;;5017964;28;20426;-81
2021/06/08 04:06:01;;;;;;;6.87;6.17;;;25.40;57.20;;;;;;5035626;28;20403;-81
2021/06/08 04:08:28;;;;;;;7.90;6.73;;;25.40;57.30;;;;;;5017667;28;20419;-81
2021/06/08 04:10:55;;;;;;;6.20;5.70;;;25.40;57.30;;;;;;5034599;28;20435;-81
2021/06/08 04:13:21;;;;;;;6.67;6.03;;;25.40;57.30;;;;;;5017120;28;20431;-85
2021/06/08 04:15:49;;;;;;;6.10;5.60;;;25.40;57.30;;;;;;5018026;28;20458;-80
2021/06/08 04:18:16;;;;;;;5.73;5.23;;;25.40;57.30;;;;;;5018127;28;20436;-81
2021/06/08 04:20:42;;;;;;;5.93;5.33;;;25.40;57.30;;;;;;5034500;28;20482;-80
2021/06/08 04:23:11;;;;;;;6.23;5.73;;;25.40;57.30;;;;;;5018174;28;20411;-82
2021/06/08 04:25:37;;;;;;;6.57;5.97;;;25.40;57.30;;;;;;5034767;28;20471;-81
2021/06/08 04:28:03;;;;;;;5.93;5.40;;;25.40;57.20;;;;;;5018448;28;20412;-81
2021/06/08 04:30:29;;;;;;;6.93;6.30;;;25.40;57.20;;;;;;5017246;28;20438;-83
2021/06/08 04:32:55;;;;;;;6.50;5.87;;;25.40;57.20;;;;;;5034017;28;20396;-81
2021/06/08 04:35:21;;;;;;;6.27;5.77;;;25.40;57.20;;;;;;5034449;28;20419;-80
2021/06/08 04:37:48;;;;;;;6.67;6.07;;;25.40;57.20;;;;;;5016747;28;20811;-80
2021/06/08 04:40:16;;;;;;;5.60;5.10;;;25.40;57.20;;;;;;5016670;28;20467;-81
2021/06/08 04:42:47;;;;;;;5.87;5.30;;;25.40;57.20;;;;;;5034973;28;20419;-80
2021/06/08 04:45:15;;;;;;;5.60;5.10;;;25.40;57.20;;;;;;5016410;28;20430;-80
2021/06/08 04:47:41;;;;;;;6.17;5.57;;;25.40;57.20;;;;;;5033880;28;20506;-80
2021/06/08 04:50:09;;;;;;;6.30;5.80;;;25.40;57.20;;;;;;5017011;28;20410;-80
2021/06/08 04:52:38;;;;;;;6.77;6.10;;;25.40;57.20;;;;;;5033919;28;20435;-81
2021/06/08 04:55:08;;;;;;;6.67;6.07;;;25.40;57.20;;;;;;5018226;28;20419;-80
2021/06/08 04:57:34;;;;;;;6.93;6.17;;;25.50;57.30;;;;;;5020798;28;20479;-80
2021/06/08 05:00:13;;;;;;;6.27;5.77;;;25.40;57.20;;;;;;5021062;28;20459;-80
2021/06/08 05:02:47;;;;;;;6.60;5.93;;;25.50;57.20;;;;;;5020838;28;20421;-80
2021/06/08 05:05:24;;;;;;;7.47;6.77;;;25.40;57.20;;;;;;5021033;28;20415;-80
2021/06/08 05:08:03;;;;;;;7.00;6.40;;;25.40;57.20;;;;;;5019613;28;20438;-80
2021/06/08 05:13:09;;;;;;;8.00;7.20;;;25.40;57.20;;;;;;5092189;23;20536;-80
2021/06/08 05:15:37;;;;;;;7.20;6.50;;;25.40;57.20;;;;;;5035512;28;20426;-80
2021/06/08 05:18:17;;;;;;;6.90;6.40;;;25.40;57.20;;;;;;5033987;28;20428;-80
2021/06/08 05:20:45;;;;;;;7.97;7.27;;;25.40;57.20;;;;;;5034666;28;20820;-80
2021/06/08 05:23:14;;;;;;;6.67;6.10;;;25.40;57.20;;;;;;5034640;28;20419;-81
2021/06/08 05:25:42;;;;;;;8.30;7.50;;;25.40;57.20;;;;;;5033379;28;20415;-80
2021/06/08 05:28:09;;;;;;;7.87;7.17;;;25.40;57.20;;;;;;5032556;28;20446;-80
2021/06/08 05:30:38;;;;;;;7.73;6.93;;;25.40;57.30;;;;;;5032998;28;20494;-80
2021/06/08 05:33:08;;;;;;;6.93;6.33;;;25.40;57.30;;;;;;5032801;28;20419;-81
2021/06/08 05:35:34;;;;;;;7.60;6.77;;;25.40;57.30;;;;;;5033291;28;20431;-81
2021/06/08 05:38:04;;;;;;;7.87;7.17;;;25.40;57.30;;;;;;5034124;28;20514;-81
2021/06/08 05:40:30;;;;;;;7.67;6.97;;;25.40;57.20;;;;;;5034171;28;20565;-80
2021/06/08 05:42:58;;;;;;;8.07;7.27;;;25.40;57.30;;;;;;5033864;28;20932;-80
2021/06/08 05:45:32;;;;;;;8.10;7.40;;;25.40;57.30;;;;;;5033628;28;20423;-81
2021/06/08 05:47:58;;;;;;;8.07;7.30;;;25.40;57.20;;;;;;5034248;28;20419;-80
2021/06/08 05:50:24;;;;;;;7.93;7.23;;;25.40;57.20;;;;;;5033284;28;20415;-80
2021/06/08 05:52:53;;;;;;;8.30;7.60;;;25.40;57.20;;;;;;5034217;28;20411;-80
2021/06/08 05:55:26;;;;;;;8.33;6.90;;;25.40;57.20;;;;;;5032684;28;20427;-80
2021/06/08 05:57:55;;;;;;;7.83;7.07;;;25.40;57.20;;;;;;5035345;28;20407;-80
2021/06/08 06:00:26;;;;;;;8.57;7.77;;;25.50;57.20;;;;;;5036027;28;20474;-80
2021/06/08 06:02:52;;;;;;;9.30;8.40;;;25.50;57.00;;;;;;5036169;28;20399;-79
2021/06/08 06:05:18;;;;;;;9.00;8.20;;;25.50;57.00;;;;;;5036609;28;20415;-79
2021/06/08 06:07:46;;;;;;;9.03;8.13;;;25.70;57.10;;;;;;5033851;28;20399;-79
2021/06/08 06:10:12;;;;;;;8.70;7.87;;;25.60;56.90;;;;;;5032648;28;20423;-79
2021/06/08 06:12:39;;;;;;;9.70;8.77;;;25.60;56.90;;;;;;5032688;28;20446;-79
2021/06/08 06:15:12;;;;;;;10.63;9.10;;;25.60;56.80;;;;;;5034049;28;20443;-80
2021/06/08 06:17:42;;;;;;;10.73;9.63;;;25.70;56.80;;;;;;5032801;28;20408;-78
2021/06/08 06:20:15;;;;;;;10.10;9.10;;;25.70;56.80;;;;;;5031841;28;20466;-79
2021/06/08 06:22:44;;;;;;;12.10;10.90;;;25.70;56.70;;;;;;5032386;28;20415;-79
2021/06/08 06:25:11;;;;;;;14.20;10.90;;;25.70;56.70;;;;;;5032550;28;20419;-80
2021/06/08 06:27:44;;;;;;;12.90;11.60;;;25.70;56.70;;;;;;5033324;28;20399;-79
2021/06/08 06:30:13;;;;;;;13.77;12.37;;;25.80;56.60;;;;;;5031481;28;20415;-79
2021/06/08 06:32:39;;;;;;;12.93;11.00;;;25.80;56.60;;;;;;5031089;28;20422;-79
2021/06/08 06:35:07;;;;;;;13.57;11.60;;;25.80;56.60;;;;;;5031610;28;20477;-79
2021/06/08 06:37:36;;;;;;;14.27;12.77;;;25.80;56.50;;;;;;5031181;28;20419;-79
2021/06/08 06:40:06;;;;;;;13.17;11.87;;;25.80;56.50;;;;;;5032882;28;20940;-79
2021/06/08 06:42:42;;;;;;;14.20;12.70;;;25.80;56.40;;;;;;5031107;28;20443;-79
2021/06/08 06:45:09;;;;;;;14.27;12.87;;;25.90;56.50;;;;;;5031398;28;20404;-79
2021/06/08 06:47:37;;;;;;;14.40;12.20;;;25.80;56.50;;;;;;5031893;28;20419;-81
2021/06/08 06:50:13;;;;;;;14.00;12.60;;;25.90;56.50;;;;;;5047276;28;20419;-80
2021/06/08 06:52:55;;;;;;;14.97;13.27;;;25.90;56.40;;;;;;5035949;28;20387;-80
2021/06/08 06:55:21;;;;;;;14.40;12.70;;;25.90;56.50;;;;;;5033784;28;20491;-79
2021/06/08 06:57:52;;;;;;;16.03;13.60;;;25.90;56.50;;;;;;5035486;28;20423;-79
2021/06/08 07:00:22;;;;;;;17.20;13.50;;;25.90;56.50;;;;;;5035207;28;20455;-79
2021/06/08 07:02:56;;;;;;;15.63;13.93;;;25.90;56.50;;;;;;5036277;28;20395;-79
2021/06/08 07:08:32;;;;;;;16.27;14.67;;;26.00;56.40;;;;;;4985529;28;20448;-80
2021/06/08 07:13:58;;;;;;;15.30;12.50;;;26.00;56.30;;;;;;5032369;28;20462;-79
2021/06/08 07:16:27;;;;;;;14.40;12.90;;;26.00;56.30;;;;;;5037870;28;20399;-79
2021/06/08 07:18:56;;;;;;;15.57;14.00;;;26.00;56.30;;;;;;5036075;28;20422;-79
2021/06/08 07:21:25;;;;;;;14.47;12.57;;;26.10;56.30;;;;;;5052835;28;20534;-79
2021/06/08 07:23:55;;;;;;;14.50;13.20;;;26.00;56.20;;;;;;5052820;28;20491;-79
2021/06/08 07:26:41;;;;;;;15.40;13.67;;;26.00;56.20;;;;;;4995032;28;20433;-79
2021/06/08 07:29:12;;;;;;;14.17;12.67;;;26.10;56.30;;;;;;4991695;28;20421;-80
2021/06/08 07:32:13;;;;;;;14.43;13.03;;;26.10;56.20;;;;;;4991927;28;20409;-81
2021/06/08 07:34:46;;;;;;;14.50;13.03;;;26.10;56.20;;;;;;4995455;28;20494;-80
2021/06/08 07:37:20;;;;;;;14.90;13.37;;;26.10;56.20;;;;;;4995175;28;20393;-80
2021/06/08 07:39:52;;;;;;;14.63;13.07;;;26.10;56.20;;;;;;4995554;28;20463;-80
2021/06/08 07:42:24;;;;;;;13.67;12.27;;;26.10;56.20;;;;;;4995279;28;20413;-81
2021/06/08 07:45:12;;;;;;;14.47;13.13;;;26.10;56.10;;;;;;4994846;28;20628;-83
2021/06/08 07:47:41;;;;;;;14.37;12.93;;;26.10;56.10;;;;;;4993237;28;20409;-83
2021/06/08 07:50:08;;;;;;;14.77;13.30;;;26.10;56.20;;;;;;4993376;28;20397;-83
2021/06/08 07:52:37;;;;;;;13.20;12.00;;;26.10;56.20;;;;;;4993858;28;20435;-83
2021/06/08 07:55:06;;;;;;;14.43;12.93;;;26.10;56.10;;;;;;4977535;28;20849;-82
2021/06/08 07:57:41;;;;;;;13.60;12.20;;;26.10;56.10;;;;;;4996316;28;20417;-82
2021/06/08 08:00:08;;;;;;;13.03;11.80;;;26.10;56.10;;;;;;4976897;28;20468;-85
2021/06/08 08:02:34;;;;;;;15.40;13.77;;;26.10;56.10;;;;;;4992416;28;20414;-84
2021/06/08 08:05:11;;;;;;;13.93;12.53;;;26.10;56.10;;;;;;5043679;28;20921;-83
2021/06/08 08:07:41;;;;;;;13.20;12.00;;;26.20;56.10;;;;;;5033556;28;20407;-83
2021/06/08 08:10:08;;;;;;;13.53;12.20;;;26.20;56.20;;;;;;5032926;28;20412;-83
2021/06/08 08:12:45;;;;;;;13.80;12.40;;;26.20;56.20;;;;;;5032652;28;20898;-83
2021/06/08 08:15:11;;;;;;;14.10;12.70;;;26.20;56.20;;;;;;5032646;28;20431;-83
2021/06/08 08:17:39;;;;;;;14.20;12.10;;;26.20;56.20;;;;;;5032673;28;20451;-84
2021/06/08 08:20:08;;;;;;;12.53;11.33;;;26.20;56.20;;;;;;5033298;28;20455;-84
2021/06/08 08:22:34;;;;;;;13.07;11.83;;;26.20;56.20;;;;;;5032215;28;20441;-84
2021/06/08 08:25:00;;;;;;;13.63;12.33;;;26.20;56.10;;;;;;5032979;28;20438;-84
2021/06/08 08:27:26;;;;;;;12.87;11.47;;;26.20;56.10;;;;;;5033099;28;20443;-84
2021/06/08 08:29:52;;;;;;;12.40;11.30;;;26.20;56.10;;;;;;5033455;28;20454;-84
2021/06/08 08:32:19;;;;;;;12.83;11.63;;;26.20;56.10;;;;;;5033226;28;20464;-84
2021/06/08 08:34:44;;;;;;;13.97;12.10;;;26.20;56.20;;;;;;5033625;28;20443;-84
2021/06/08 08:37:16;;;;;;;12.83;11.57;;;26.20;56.20;;;;;;5034718;28;20408;-83
2021/06/08 08:39:42;;;;;;;12.63;11.40;;;26.20;56.10;;;;;;5033923;28;20194;-84
2021/06/08 08:42:12;;;;;;;12.37;11.23;;;26.20;56.10;;;;;;5033347;28;20439;-84
2021/06/08 08:44:38;;;;;;;12.67;11.60;;;26.20;56.10;;;;;;5031683;28;20173;-84
2021/06/08 08:47:04;;;;;;;11.77;10.67;;;26.20;56.10;;;;;;5031674;28;20419;-84
2021/06/08 08:49:29;;;;;;;11.70;10.60;;;26.20;56.20;;;;;;5032377;28;20180;-84
2021/06/08 08:51:56;;;;;;;12.17;11.07;;;26.20;56.20;;;;;;5047583;28;20184;-84
2021/06/08 08:54:22;;;;;;;12.90;11.70;;;26.30;56.20;;;;;;5030869;28;20180;-84
2021/06/08 08:56:48;;;;;;;11.30;10.20;;;26.30;56.20;;;;;;5032517;28;20442;-84
2021/06/08 08:59:16;;;;;;;12.40;11.20;;;26.20;56.20;;;;;;5032027;28;20420;-84
2021/06/08 09:01:46;;;;;;;12.20;10.93;;;26.30;56.20;;;;;;5031576;28;20450;-84
2021/06/08 09:04:12;;;;;;;12.07;10.90;;;26.30;56.20;;;;;;5031738;28;20419;-84
2021/06/08 09:06:38;;;;;;;12.57;11.37;;;26.30;56.20;;;;;;5031359;28;20419;-84
2021/06/08 09:09:08;;;;;;;12.90;11.80;;;26.30;56.10;;;;;;5032535;28;20709;-84
2021/06/08 09:11:40;;;;;;;11.70;10.60;;;26.30;56.70;;;;;;5030974;28;20442;-83
2021/06/08 09:14:11;;;;;;;12.30;11.10;;;26.30;56.10;;;;;;5030675;28;20419;-83
2021/06/08 09:16:40;;;;;;;12.37;11.10;;;26.30;56.20;;;;;;5031467;28;20434;-83
2021/06/08 09:19:08;;;;;;;11.10;10.00;;;26.30;56.10;;;;;;5030659;28;20422;-83
2021/06/08 09:21:43;;;;;;;11.90;10.80;;;26.30;56.10;;;;;;5030350;28;20463;-83
2021/06/08 09:24:19;;;;;;;12.30;11.10;;;26.40;56.10;;;;;;5031075;28;20422;-83
2021/06/08 09:27:06;;;;;;;10.37;9.47;;;26.30;56.10;;;;;;5031382;28;20411;-84
2021/06/08 09:29:45;;;;;;;11.47;10.40;;;26.30;56.10;;;;;;5030996;28;20404;-85
2021/06/08 09:32:26;;;;;;;11.57;10.47;;;26.30;56.20;;;;;;5030235;28;20407;-84
2021/06/08 09:34:56;;;;;;;11.67;10.60;;;26.30;56.10;;;;;;5031690;28;20395;-85
2021/06/08 09:37:48;;;;;;;10.47;9.40;;;26.30;56.20;;;;;;5031217;28;20446;-84
2021/06/08 09:40:24;;;;;;;11.60;10.50;;;26.30;56.10;;;;;;5030596;28;20564;-84
2021/06/08 09:43:22;;;;;;;9.33;8.53;;;26.30;56.10;;;;;;5031160;28;20411;-84
2021/06/08 09:45:51;;;;;;;13.23;9.87;;;26.30;56.10;;;;;;5030554;28;20487;-84
2021/06/08 09:48:17;;;;;;;11.97;10.87;;;26.30;56.20;;;;;;5030226;28;20411;-84
2021/06/08 09:50:46;;;;;;;11.37;10.27;;;26.30;56.20;;;;;;5047536;28;20443;-84
2021/06/08 09:53:28;;;;;;;11.40;10.40;;;26.30;56.20;;;;;;5030880;28;20423;-85
2021/06/08 09:55:55;;;;;;;10.37;9.37;;;26.30;56.10;;;;;;5031300;28;20921;-83
2021/06/08 09:58:23;;;;;;;10.90;9.90;;;26.30;56.10;;;;;;5032072;28;20430;-83
2021/06/08 10:01:11;;;;;;;11.77;10.67;;;26.30;56.10;;;;;;5034045;28;20451;-83
2021/06/08 10:03:45;;;;;;;10.50;9.40;;;26.40;56.20;;;;;;5033407;28;20414;-84
2021/06/08 10:06:24;;;;;;;11.90;10.80;;;26.30;56.10;;;;;;5031218;28;20438;-84
2021/06/08 10:09:01;;;;;;;10.57;9.63;;;26.40;56.10;;;;;;5029774;28;20490;-84
2021/06/08 10:11:33;;;;;;;9.47;8.57;;;26.40;56.10;;;;;;5030898;28;20422;-83
2021/06/08 10:14:11;;;;;;;11.80;10.70;;;26.30;56.10;;;;;;5031412;28;20404;-84
2021/06/08 10:16:38;;;;;;;10.37;9.40;;;26.30;56.10;;;;;;5031090;28;20824;-83
2021/06/08 10:19:07;;;;;;;10.33;9.33;;;26.30;56.00;;;;;;5030680;28;20407;-83
2021/06/08 10:21:33;;;;;;;10.70;9.60;;;26.40;56.10;;;;;;5029420;28;20965;-83
2021/06/08 10:24:08;;;;;;;11.13;9.47;;;26.40;56.20;;;;;;5032058;28;20438;-83
2021/06/08 10:26:36;;;;;;;9.40;8.60;;;26.40;56.10;;;;;;5030525;28;20198;-83
2021/06/08 10:29:08;;;;;;;10.03;9.10;;;26.40;56.10;;;;;;5029809;28;20407;-83
2021/06/08 10:31:36;;;;;;;10.40;9.40;;;26.40;56.20;;;;;;5030511;28;20874;-84
2021/06/08 10:34:06;;;;;;;10.23;9.23;;;26.30;56.10;;;;;;5030961;28;20427;-84
2021/06/08 10:36:34;;;;;;;9.80;8.90;;;26.30;56.00;;;;;;5032731;28;20411;-83
2021/06/08 10:39:03;;;;;;;10.23;9.33;;;26.40;56.10;;;;;;5033680;28;20391;-84
2021/06/08 10:41:33;;;;;;;10.33;9.43;;;26.40;56.10;;;;;;5032625;28;20459;-84
2021/06/08 10:44:01;;;;;;;10.03;9.13;;;26.40;56.10;;;;;;5033593;28;20447;-83
2021/06/08 10:46:32;;;;;;;9.23;8.43;;;26.40;56.10;;;;;;5033448;28;20419;-83
2021/06/08 10:49:00;;;;;;;10.33;9.40;;;26.40;56.10;;;;;;5033444;28;20380;-83
2021/06/08 10:51:29;;;;;;;9.77;8.80;;;26.30;56.00;;;;;;5033106;28;20495;-83
2021/06/08 10:53:57;;;;;;;10.37;9.37;;;26.30;56.00;;;;;;5023322;28;20412;-83
2021/06/08 10:56:35;;;;;;;10.00;9.00;;;26.30;56.00;;;;;;5013223;28;20404;-83
2021/06/08 10:59:08;;;;;;;10.30;9.00;;;26.40;56.00;;;;;;5014457;28;20516;-83
2021/06/08 11:01:40;;;;;;;10.27;9.27;;;26.30;56.00;;;;;;5013186;28;20506;-83
2021/06/08 11:04:11;;;;;;;8.90;8.03;;;26.40;56.10;;;;;;5013649;28;20385;-83
2021/06/08 11:06:37;;;;;;;9.63;8.70;;;26.30;56.10;;;;;;5013901;28;20396;-83
2021/06/08 11:09:12;;;;;;;10.80;9.70;;;26.30;56.10;;;;;;5018398;28;20404;-83
2021/06/08 11:12:08;;;;;;;13.17;10.53;;;26.30;56.10;;;;;;5033077;28;20198;-83
2021/06/08 11:14:56;;;;;;;12.50;9.57;;;26.40;56.10;;;;;;5032705;28;20422;-83
2021/06/08 11:17:37;;;;;;;11.07;9.30;;;26.30;56.20;;;;;;5017928;28;20465;-84
2021/06/08 11:20:12;;;;;;;14.23;10.40;;;26.30;56.10;;;;;;5017392;28;20448;-83
2021/06/08 11:22:42;;;;;;;14.87;10.80;;;26.30;56.20;;;;;;5016700;28;20451;-83
2021/06/08 11:25:29;;;;;;;11.00;9.30;;;26.30;56.10;;;;;;5017086;28;20404;-83
2021/06/08 11:28:10;;;;;;;11.93;10.37;;;26.20;56.00;;;;;;5016426;28;20412;-83
2021/06/08 11:31:17;;;;;;;11.20;9.87;;;26.30;56.10;;;;;;5017929;28;20407;-83
2021/06/08 11:34:04;;;;;;;12.53;9.70;;;26.20;56.00;;;;;;5016694;28;20411;-83
2021/06/08 11:47:01;;;;;;;10.43;8.00;;;26.10;56.20;;;;;;5016815;28;20356;-83
2021/06/08 11:49:31;;;;;;;12.23;10.87;;;26.10;56.20;;;;;;5017312;28;20407;-83
2021/06/08 11:52:24;;;;;;;10.47;9.40;;;26.10;56.30;;;;;;5017765;28;20424;-83
2021/06/08 11:54:50;;;;;;;11.60;9.90;;;26.20;56.30;;;;;;5017212;28;20459;-83
2021/06/08 11:57:37;;;;;;;11.33;9.40;;;26.10;56.30;;;;;;5015986;28;20424;-83
2021/06/08 12:00:05;;;;;;;11.57;10.37;;;26.10;56.20;;;;;;5016007;28;20550;-83
2021/06/08 12:06:37;;;;;;;11.20;8.97;;;26.10;56.20;;;;;;5016236;28;20384;-84
2021/06/08 12:09:04;;;;;;;13.00;10.10;;;26.10;56.20;;;;;;5015818;28;20415;-83
2021/06/08 12:11:35;;;;;;;14.63;10.70;;;26.10;56.30;;;;;;5016321;28;20439;-83
2021/06/08 12:14:56;;;;;;;11.57;10.33;;;26.00;56.20;;;;;;5016963;28;20432;-83
2021/06/08 12:17:23;;;;;;;10.47;9.47;;;26.10;56.20;;;;;;5015412;28;20420;-83
2021/06/08 12:20:00;;;;;;;10.60;9.60;;;26.10;56.30;;;;;;5016549;28;20483;-83
2021/06/08 12:25:48;;;;;;;11.57;10.07;;;26.10;56.20;;;;;;5016966;28;20577;-83
2021/06/08 12:28:33;;;;;;;10.80;9.77;;;26.10;56.30;;;;;;5014810;28;20423;-83
2021/06/08 12:34:24;;;;;;;10.30;9.40;;;26.10;56.20;;;;;;5016618;28;20367;-83
2021/06/08 12:36:56;;;;;;;10.13;9.13;;;26.00;56.20;;;;;;5031486;28;20523;-83
2021/06/08 12:39:38;;;;;;;10.97;9.50;;;26.00;56.20;;;;;;5015029;28;20449;-83
2021/06/08 12:42:16;;;;;;;10.27;9.13;;;26.10;56.30;;;;;;5014546;28;20420;-83
2021/06/08 12:45:35;;;;;;;10.33;9.20;;;26.00;56.20;;;;;;5015808;28;20419;-83
2021/06/08 12:48:26;;;;;;;11.50;9.30;;;26.00;56.20;;;;;;5016251;28;20734;-83
2021/06/08 12:50:55;;;;;;;10.23;9.17;;;26.00;56.20;;;;;;5014903;28;20420;-83
2021/06/08 12:53:30;;;;;;;9.97;8.80;;;26.00;56.40;;;;;;5014907;28;20435;-83
2021/06/08 12:56:34;;;;;;;11.00;9.97;;;26.00;56.30;;;;;;5028738;28;20451;-84
2021/06/08 12:59:09;;;;;;;10.20;9.13;;;26.10;56.30;;;;;;5013695;28;20424;-83
2021/06/08 13:02:24;;;;;;;13.20;10.60;;;26.10;56.40;;;;;;5030703;28;20471;-83
2021/06/08 13:05:37;;;;;;;10.80;9.73;;;26.10;56.40;;;;;;5013274;28;20404;-83
2021/06/08 13:12:08;;;;;;;10.07;9.03;;;26.10;56.50;;;;;;5013816;28;20399;-82
2021/06/08 13:15:13;;;;;;;9.17;8.27;;;26.10;56.50;;;;;;5013475;28;20419;-83
2021/06/08 13:21:01;;;;;;;10.40;8.50;;;26.20;56.40;;;;;;5014142;28;20502;-83
2021/06/08 13:30:45;;;;;;;9.43;8.30;;;26.20;56.40;;;;;;5010596;28;20424;-84
2021/06/08 13:33:26;;;;;;;13.30;8.63;;;26.20;56.30;;;;;;4970040;28;20519;-84
2021/06/08 13:46:27;;;;;;;11.00;8.50;;;26.30;56.50;;;;;;4897364;29;20433;-82
2021/06/08 13:49:30;;;;;;;9.00;7.97;;;26.30;56.40;;;;;;4901044;29;20401;-81
2021/06/08 13:55:22;;;;;;;9.07;8.27;;;26.30;56.40;;;;;;4915743;29;20403;-82
2021/06/08 14:01:13;;;;;;;8.37;7.67;;;26.40;56.40;;;;;;4916270;29;20479;-81
2021/06/08 14:03:57;;;;;;;8.73;7.93;;;26.40;56.40;;;;;;4909528;29;20587;-82
2021/06/08 14:06:23;;;;;;;8.80;8.00;;;26.40;56.30;;;;;;4918832;29;20552;-82
2021/06/08 14:13:02;;;;;;;8.30;7.60;;;26.50;56.30;;;;;;4934939;28;20805;-81
2021/06/08 14:15:48;;;;;;;8.07;7.37;;;26.40;56.30;;;;;;4933359;29;20432;-82
2021/06/08 14:18:14;;;;;;;8.27;7.57;;;26.40;56.30;;;;;;4918907;29;20428;-87